sensor_id;sensor_type;location;lat;lon;timestamp;P1;durP1;ratioP1;P2;durP2;ratioP2
60257;SDS011;46115;44.484;11.314;2022-07-21T00:03:37;10.43;;;6.88;;
60257;SDS011;46115;44.484;11.314;2022-07-21T00:07:39;9.38;;;7.03;;
60257;SDS011;46115;44.484;11.314;2022-07-21T00:11:41;9.05;;;7.18;;
60257;SDS011;46115;44.484;11.314;2022-07-21T00:15:46;9.00;;;7.07;;
60257;SDS011;46115;44.484;11.314;2022-07-21T00:19:49;10.95;;;6.65;;
60257;SDS011;46115;44.484;11.314;2022-07-21T00:23:51;7.45;;;6.22;;
60257;SDS011;46115;44.484;11.314;2022-07-21T00:27:54;7.40;;;6.47;;
60257;SDS011;46115;44.484;11.314;2022-07-21T00:31:57;8.70;;;6.57;;
60257;SDS011;46115;44.484;11.314;2022-07-21T00:36:01;8.10;;;5.97;;
60257;SDS011;46115;44.484;11.314;2022-07-21T00:40:03;9.13;;;6.25;;
60257;SDS011;46115;44.484;11.314;2022-07-21T00:44:18;11.32;;;6.50;;
60257;SDS011;46115;44.484;11.314;2022-07-21T00:48:22;8.88;;;6.30;;
60257;SDS011;46115;44.484;11.314;2022-07-21T00:52:25;8.95;;;5.88;;
60257;SDS011;46115;44.484;11.314;2022-07-21T00:56:27;8.30;;;6.05;;
60257;SDS011;46115;44.484;11.314;2022-07-21T01:00:30;12.63;;;5.75;;
60257;SDS011;46115;44.484;11.314;2022-07-21T01:04:34;7.20;;;5.80;;
60257;SDS011;46115;44.484;11.314;2022-07-21T01:08:36;10.43;;;5.93;;
60257;SDS011;46115;44.484;11.314;2022-07-21T01:12:39;6.93;;;6.03;;
60257;SDS011;46115;44.484;11.314;2022-07-21T01:16:42;7.03;;;5.63;;
60257;SDS011;46115;44.484;11.314;2022-07-21T01:20:48;6.43;;;5.60;;
60257;SDS011;46115;44.484;11.314;2022-07-21T01:24:56;6.20;;;5.60;;
60257;SDS011;46115;44.484;11.314;2022-07-21T01:29:16;7.68;;;5.47;;
60257;SDS011;46115;44.484;11.314;2022-07-21T01:33:19;8.75;;;5.43;;
60257;SDS011;46115;44.484;11.314;2022-07-21T01:37:21;6.95;;;5.07;;
60257;SDS011;46115;44.484;11.314;2022-07-21T01:41:26;6.90;;;5.53;;
60257;SDS011;46115;44.484;11.314;2022-07-21T01:45:31;6.85;;;5.50;;
60257;SDS011;46115;44.484;11.314;2022-07-21T01:49:33;7.03;;;5.05;;
60257;SDS011;46115;44.484;11.314;2022-07-21T01:53:35;6.28;;;4.93;;
60257;SDS011;46115;44.484;11.314;2022-07-21T01:57:39;6.00;;;5.00;;
60257;SDS011;46115;44.484;11.314;2022-07-21T02:01:41;8.20;;;5.30;;
60257;SDS011;46115;44.484;11.314;2022-07-21T02:05:44;6.90;;;5.28;;
60257;SDS011;46115;44.484;11.314;2022-07-21T02:09:46;7.60;;;5.10;;
60257;SDS011;46115;44.484;11.314;2022-07-21T02:13:50;5.68;;;5.07;;
60257;SDS011;46115;44.484;11.314;2022-07-21T02:17:52;7.38;;;5.30;;
60257;SDS011;46115;44.484;11.314;2022-07-21T02:21:54;9.68;;;5.40;;
60257;SDS011;46115;44.484;11.314;2022-07-21T02:25:57;8.10;;;5.30;;
60257;SDS011;46115;44.484;11.314;2022-07-21T02:30:00;6.80;;;5.03;;
60257;SDS011;46115;44.484;11.314;2022-07-21T02:34:03;6.57;;;5.15;;
60257;SDS011;46115;44.484;11.314;2022-07-21T02:38:07;8.23;;;4.88;;
60257;SDS011;46115;44.484;11.314;2022-07-21T02:42:09;7.95;;;5.10;;
60257;SDS011;46115;44.484;11.314;2022-07-21T02:46:13;5.85;;;5.15;;
60257;SDS011;46115;44.484;11.314;2022-07-21T02:50:15;6.10;;;5.15;;
60257;SDS011;46115;44.484;11.314;2022-07-21T02:54:19;5.80;;;5.20;;
60257;SDS011;46115;44.484;11.314;2022-07-21T02:58:22;7.10;;;5.10;;
60257;SDS011;46115;44.484;11.314;2022-07-21T03:02:27;8.48;;;5.35;;
60257;SDS011;46115;44.484;11.314;2022-07-21T03:06:29;7.57;;;5.20;;
60257;SDS011;46115;44.484;11.314;2022-07-21T03:10:32;9.55;;;5.20;;
60257;SDS011;46115;44.484;11.314;2022-07-21T03:14:34;7.68;;;5.10;;
60257;SDS011;46115;44.484;11.314;2022-07-21T03:18:38;10.48;;;5.57;;
60257;SDS011;46115;44.484;11.314;2022-07-21T03:22:42;7.82;;;5.30;;
60257;SDS011;46115;44.484;11.314;2022-07-21T03:26:44;9.43;;;5.60;;
60257;SDS011;46115;44.484;11.314;2022-07-21T03:30:46;6.57;;;5.40;;
60257;SDS011;46115;44.484;11.314;2022-07-21T03:34:50;6.45;;;4.88;;
60257;SDS011;46115;44.484;11.314;2022-07-21T03:38:53;6.78;;;4.97;;
60257;SDS011;46115;44.484;11.314;2022-07-21T03:42:57;7.35;;;5.30;;
60257;SDS011;46115;44.484;11.314;2022-07-21T03:47:01;6.70;;;5.28;;
60257;SDS011;46115;44.484;11.314;2022-07-21T03:51:05;8.80;;;5.10;;
60257;SDS011;46115;44.484;11.314;2022-07-21T03:55:08;6.22;;;5.10;;
60257;SDS011;46115;44.484;11.314;2022-07-21T03:59:13;6.18;;;5.20;;
60257;SDS011;46115;44.484;11.314;2022-07-21T04:03:15;6.78;;;4.97;;
60257;SDS011;46115;44.484;11.314;2022-07-21T04:07:19;6.88;;;4.80;;
60257;SDS011;46115;44.484;11.314;2022-07-21T04:11:22;8.80;;;5.38;;
60257;SDS011;46115;44.484;11.314;2022-07-21T04:15:24;5.97;;;5.18;;
60257;SDS011;46115;44.484;11.314;2022-07-21T04:19:27;6.78;;;5.13;;
60257;SDS011;46115;44.484;11.314;2022-07-21T04:23:31;6.45;;;5.20;;
60257;SDS011;46115;44.484;11.314;2022-07-21T04:27:33;8.75;;;5.55;;
60257;SDS011;46115;44.484;11.314;2022-07-21T04:31:36;6.35;;;5.35;;
60257;SDS011;46115;44.484;11.314;2022-07-21T04:35:38;7.05;;;5.50;;
60257;SDS011;46115;44.484;11.314;2022-07-21T04:39:42;7.97;;;5.53;;
60257;SDS011;46115;44.484;11.314;2022-07-21T04:43:45;7.18;;;5.40;;
60257;SDS011;46115;44.484;11.314;2022-07-21T04:47:48;6.55;;;5.30;;
60257;SDS011;46115;44.484;11.314;2022-07-21T04:51:53;6.43;;;5.28;;
60257;SDS011;46115;44.484;11.314;2022-07-21T04:55:57;7.10;;;4.75;;
60257;SDS011;46115;44.484;11.314;2022-07-21T04:59:59;7.53;;;5.35;;
60257;SDS011;46115;44.484;11.314;2022-07-21T05:04:04;8.10;;;5.10;;
60257;SDS011;46115;44.484;11.314;2022-07-21T05:08:07;5.97;;;5.03;;
60257;SDS011;46115;44.484;11.314;2022-07-21T05:12:11;7.50;;;5.30;;
60257;SDS011;46115;44.484;11.314;2022-07-21T05:16:13;8.77;;;5.30;;
60257;SDS011;46115;44.484;11.314;2022-07-21T05:20:16;12.35;;;5.28;;
60257;SDS011;46115;44.484;11.314;2022-07-21T05:24:18;6.70;;;5.68;;
60257;SDS011;46115;44.484;11.314;2022-07-21T05:28:22;8.30;;;5.32;;
60257;SDS011;46115;44.484;11.314;2022-07-21T05:32:24;6.18;;;5.13;;
60257;SDS011;46115;44.484;11.314;2022-07-21T05:36:27;9.18;;;5.03;;
60257;SDS011;46115;44.484;11.314;2022-07-21T05:40:29;6.70;;;5.30;;
60257;SDS011;46115;44.484;11.314;2022-07-21T05:44:33;7.47;;;5.28;;
60257;SDS011;46115;44.484;11.314;2022-07-21T05:48:36;8.23;;;5.20;;
60257;SDS011;46115;44.484;11.314;2022-07-21T05:52:38;7.43;;;4.88;;
60257;SDS011;46115;44.484;11.314;2022-07-21T05:56:41;10.05;;;4.90;;
60257;SDS011;46115;44.484;11.314;2022-07-21T06:00:44;7.43;;;4.93;;
60257;SDS011;46115;44.484;11.314;2022-07-21T06:05:08;8.13;;;5.18;;
60257;SDS011;46115;44.484;11.314;2022-07-21T06:09:11;6.57;;;4.50;;
60257;SDS011;46115;44.484;11.314;2022-07-21T06:13:14;5.43;;;4.82;;
60257;SDS011;46115;44.484;11.314;2022-07-21T06:17:17;7.28;;;4.75;;
60257;SDS011;46115;44.484;11.314;2022-07-21T06:21:20;8.95;;;4.90;;
60257;SDS011;46115;44.484;11.314;2022-07-21T06:25:23;6.18;;;4.78;;
60257;SDS011;46115;44.484;11.314;2022-07-21T06:29:25;10.23;;;5.50;;
60257;SDS011;46115;44.484;11.314;2022-07-21T06:33:29;8.40;;;5.18;;
60257;SDS011;46115;44.484;11.314;2022-07-21T06:37:31;10.52;;;5.93;;
60257;SDS011;46115;44.484;11.314;2022-07-21T06:41:34;10.85;;;6.03;;
60257;SDS011;46115;44.484;11.314;2022-07-21T06:45:43;10.73;;;6.40;;
60257;SDS011;46115;44.484;11.314;2022-07-21T06:49:47;8.30;;;5.38;;
60257;SDS011;46115;44.484;11.314;2022-07-21T06:53:49;9.50;;;6.78;;
60257;SDS011;46115;44.484;11.314;2022-07-21T06:57:51;14.05;;;7.20;;
60257;SDS011;46115;44.484;11.314;2022-07-21T07:01:54;12.75;;;7.25;;
60257;SDS011;46115;44.484;11.314;2022-07-21T07:05:58;14.75;;;7.82;;
60257;SDS011;46115;44.484;11.314;2022-07-21T07:10:00;13.77;;;7.07;;
60257;SDS011;46115;44.484;11.314;2022-07-21T07:14:03;14.38;;;7.95;;
60257;SDS011;46115;44.484;11.314;2022-07-21T07:18:05;12.88;;;7.65;;
60257;SDS011;46115;44.484;11.314;2022-07-21T07:22:09;12.85;;;6.32;;
60257;SDS011;46115;44.484;11.314;2022-07-21T07:26:12;11.63;;;5.88;;
60257;SDS011;46115;44.484;11.314;2022-07-21T07:30:14;12.60;;;5.75;;
60257;SDS011;46115;44.484;11.314;2022-07-21T07:34:17;8.25;;;6.13;;
60257;SDS011;46115;44.484;11.314;2022-07-21T07:38:21;7.80;;;5.60;;
60257;SDS011;46115;44.484;11.314;2022-07-21T07:42:23;11.60;;;5.93;;
60257;SDS011;46115;44.484;11.314;2022-07-21T07:46:26;13.95;;;6.40;;
60257;SDS011;46115;44.484;11.314;2022-07-21T07:50:28;9.77;;;6.10;;
60257;SDS011;46115;44.484;11.314;2022-07-21T07:54:32;12.27;;;5.93;;
60257;SDS011;46115;44.484;11.314;2022-07-21T07:58:34;9.05;;;6.07;;
60257;SDS011;46115;44.484;11.314;2022-07-21T08:02:37;12.40;;;6.07;;
60257;SDS011;46115;44.484;11.314;2022-07-21T08:06:40;10.13;;;5.70;;
60257;SDS011;46115;44.484;11.314;2022-07-21T08:10:44;12.43;;;5.90;;
60257;SDS011;46115;44.484;11.314;2022-07-21T08:14:47;8.68;;;6.18;;
60257;SDS011;46115;44.484;11.314;2022-07-21T08:18:50;13.18;;;5.80;;
60257;SDS011;46115;44.484;11.314;2022-07-21T08:22:52;8.27;;;5.38;;
60257;SDS011;46115;44.484;11.314;2022-07-21T08:26:56;8.48;;;4.90;;
60257;SDS011;46115;44.484;11.314;2022-07-21T08:30:58;8.52;;;4.88;;
60257;SDS011;46115;44.484;11.314;2022-07-21T08:35:01;10.20;;;5.15;;
60257;SDS011;46115;44.484;11.314;2022-07-21T08:39:03;9.15;;;4.70;;
60257;SDS011;46115;44.484;11.314;2022-07-21T08:43:07;5.15;;;4.00;;
60257;SDS011;46115;44.484;11.314;2022-07-21T08:47:10;9.25;;;4.32;;
60257;SDS011;46115;44.484;11.314;2022-07-21T08:51:13;8.07;;;4.22;;
60257;SDS011;46115;44.484;11.314;2022-07-21T08:55:16;6.90;;;4.32;;
60257;SDS011;46115;44.484;11.314;2022-07-21T08:59:20;8.38;;;4.38;;
60257;SDS011;46115;44.484;11.314;2022-07-21T09:03:25;9.40;;;4.50;;
60257;SDS011;46115;44.484;11.314;2022-07-21T09:07:31;4.60;;;3.85;;
60257;SDS011;46115;44.484;11.314;2022-07-21T09:11:49;7.30;;;4.00;;
60257;SDS011;46115;44.484;11.314;2022-07-21T09:15:53;8.55;;;3.67;;
60257;SDS011;46115;44.484;11.314;2022-07-21T09:19:55;9.02;;;3.80;;
60257;SDS011;46115;44.484;11.314;2022-07-21T09:24:10;14.60;;;3.90;;
60257;SDS011;46115;44.484;11.314;2022-07-21T09:28:17;6.53;;;3.83;;
60257;SDS011;46115;44.484;11.314;2022-07-21T09:32:23;8.80;;;3.58;;
60257;SDS011;46115;44.484;11.314;2022-07-21T09:36:27;8.32;;;3.80;;
60257;SDS011;46115;44.484;11.314;2022-07-21T09:40:30;10.18;;;4.00;;
60257;SDS011;46115;44.484;11.314;2022-07-21T09:44:32;5.20;;;3.40;;
60257;SDS011;46115;44.484;11.314;2022-07-21T09:48:37;6.82;;;3.47;;
60257;SDS011;46115;44.484;11.314;2022-07-21T09:52:42;7.50;;;3.13;;
60257;SDS011;46115;44.484;11.314;2022-07-21T09:56:46;5.40;;;3.22;;
60257;SDS011;46115;44.484;11.314;2022-07-21T10:00:48;10.25;;;3.42;;
60257;SDS011;46115;44.484;11.314;2022-07-21T10:04:55;6.80;;;2.90;;
60257;SDS011;46115;44.484;11.314;2022-07-21T10:09:00;6.35;;;2.92;;
60257;SDS011;46115;44.484;11.314;2022-07-21T10:13:03;5.80;;;3.15;;
60257;SDS011;46115;44.484;11.314;2022-07-21T10:17:06;5.72;;;3.08;;
60257;SDS011;46115;44.484;11.314;2022-07-21T10:21:17;7.80;;;3.03;;
60257;SDS011;46115;44.484;11.314;2022-07-21T10:25:28;8.07;;;2.92;;
60257;SDS011;46115;44.484;11.314;2022-07-21T10:29:50;8.63;;;3.10;;
60257;SDS011;46115;44.484;11.314;2022-07-21T10:33:55;6.97;;;3.08;;
60257;SDS011;46115;44.484;11.314;2022-07-21T10:38:01;7.28;;;2.90;;
60257;SDS011;46115;44.484;11.314;2022-07-21T10:42:13;6.35;;;3.10;;
60257;SDS011;46115;44.484;11.314;2022-07-21T10:46:32;13.25;;;3.03;;
60257;SDS011;46115;44.484;11.314;2022-07-21T10:50:39;4.68;;;2.60;;
60257;SDS011;46115;44.484;11.314;2022-07-21T10:54:44;6.75;;;3.10;;
60257;SDS011;46115;44.484;11.314;2022-07-21T10:59:17;6.88;;;3.03;;
60257;SDS011;46115;44.484;11.314;2022-07-21T11:03:21;7.45;;;2.70;;
60257;SDS011;46115;44.484;11.314;2022-07-21T11:07:34;8.63;;;2.75;;
60257;SDS011;46115;44.484;11.314;2022-07-21T11:12:14;7.60;;;3.05;;
60257;SDS011;46115;44.484;11.314;2022-07-21T11:16:17;6.47;;;2.88;;
60257;SDS011;46115;44.484;11.314;2022-07-21T11:20:19;5.22;;;3.13;;
60257;SDS011;46115;44.484;11.314;2022-07-21T11:24:22;7.70;;;2.60;;
60257;SDS011;46115;44.484;11.314;2022-07-21T11:28:27;4.85;;;2.20;;
60257;SDS011;46115;44.484;11.314;2022-07-21T11:32:30;8.50;;;2.50;;
60257;SDS011;46115;44.484;11.314;2022-07-21T11:36:32;10.88;;;2.72;;
60257;SDS011;46115;44.484;11.314;2022-07-21T11:40:35;7.43;;;2.70;;
60257;SDS011;46115;44.484;11.314;2022-07-21T11:44:39;4.65;;;2.40;;
60257;SDS011;46115;44.484;11.314;2022-07-21T11:48:42;6.93;;;2.50;;
60257;SDS011;46115;44.484;11.314;2022-07-21T11:52:44;7.07;;;2.65;;
60257;SDS011;46115;44.484;11.314;2022-07-21T11:56:48;6.13;;;2.67;;
60257;SDS011;46115;44.484;11.314;2022-07-21T12:01:04;7.35;;;2.58;;
60257;SDS011;46115;44.484;11.314;2022-07-21T12:05:08;8.35;;;2.60;;
60257;SDS011;46115;44.484;11.314;2022-07-21T12:09:11;4.20;;;2.35;;
60257;SDS011;46115;44.484;11.314;2022-07-21T12:13:13;6.05;;;2.75;;
60257;SDS011;46115;44.484;11.314;2022-07-21T12:17:31;6.20;;;2.60;;
60257;SDS011;46115;44.484;11.314;2022-07-21T12:21:42;6.65;;;2.88;;
60257;SDS011;46115;44.484;11.314;2022-07-21T12:25:46;7.53;;;2.85;;
60257;SDS011;46115;44.484;11.314;2022-07-21T12:29:49;7.70;;;2.90;;
60257;SDS011;46115;44.484;11.314;2022-07-21T12:33:54;7.38;;;2.90;;
60257;SDS011;46115;44.484;11.314;2022-07-21T12:38:00;7.93;;;2.70;;
60257;SDS011;46115;44.484;11.314;2022-07-21T12:42:08;7.15;;;2.80;;
60257;SDS011;46115;44.484;11.314;2022-07-21T12:46:28;6.95;;;3.20;;
60257;SDS011;46115;44.484;11.314;2022-07-21T12:50:34;5.43;;;2.92;;
60257;SDS011;46115;44.484;11.314;2022-07-21T12:54:39;9.10;;;3.05;;
60257;SDS011;46115;44.484;11.314;2022-07-21T12:58:42;8.35;;;2.97;;
60257;SDS011;46115;44.484;11.314;2022-07-21T13:02:45;6.53;;;2.88;;
60257;SDS011;46115;44.484;11.314;2022-07-21T13:06:50;6.15;;;2.58;;
60257;SDS011;46115;44.484;11.314;2022-07-21T13:10:52;7.95;;;3.28;;
60257;SDS011;46115;44.484;11.314;2022-07-21T13:14:55;6.18;;;2.92;;
60257;SDS011;46115;44.484;11.314;2022-07-21T13:18:57;5.97;;;2.88;;
60257;SDS011;46115;44.484;11.314;2022-07-21T13:23:01;10.90;;;2.90;;
60257;SDS011;46115;44.484;11.314;2022-07-21T13:27:03;9.55;;;2.75;;
60257;SDS011;46115;44.484;11.314;2022-07-21T13:31:06;8.50;;;2.92;;
60257;SDS011;46115;44.484;11.314;2022-07-21T13:35:09;4.60;;;2.90;;
60257;SDS011;46115;44.484;11.314;2022-07-21T13:39:12;8.00;;;2.70;;
60257;SDS011;46115;44.484;11.314;2022-07-21T13:43:15;6.85;;;3.60;;
60257;SDS011;46115;44.484;11.314;2022-07-21T13:47:17;7.68;;;3.20;;
60257;SDS011;46115;44.484;11.314;2022-07-21T13:51:20;9.48;;;3.40;;
60257;SDS011;46115;44.484;11.314;2022-07-21T13:55:24;8.80;;;3.25;;
60257;SDS011;46115;44.484;11.314;2022-07-21T13:59:27;8.10;;;3.38;;
60257;SDS011;46115;44.484;11.314;2022-07-21T14:03:29;8.00;;;2.90;;
60257;SDS011;46115;44.484;11.314;2022-07-21T14:07:31;9.23;;;2.70;;
60257;SDS011;46115;44.484;11.314;2022-07-21T14:11:35;5.35;;;2.63;;
60257;SDS011;46115;44.484;11.314;2022-07-21T14:15:38;9.25;;;2.70;;
60257;SDS011;46115;44.484;11.314;2022-07-21T14:19:40;10.80;;;3.00;;
60257;SDS011;46115;44.484;11.314;2022-07-21T14:23:44;9.02;;;3.00;;
60257;SDS011;46115;44.484;11.314;2022-07-21T14:27:48;14.05;;;3.22;;
60257;SDS011;46115;44.484;11.314;2022-07-21T14:31:52;8.95;;;3.42;;
60257;SDS011;46115;44.484;11.314;2022-07-21T14:35:54;10.05;;;3.00;;
60257;SDS011;46115;44.484;11.314;2022-07-21T14:39:56;8.55;;;3.00;;
60257;SDS011;46115;44.484;11.314;2022-07-21T14:44:00;5.70;;;3.00;;
60257;SDS011;46115;44.484;11.314;2022-07-21T14:48:03;6.85;;;3.17;;
60257;SDS011;46115;44.484;11.314;2022-07-21T14:52:08;7.75;;;3.03;;
60257;SDS011;46115;44.484;11.314;2022-07-21T14:56:10;5.88;;;2.78;;
60257;SDS011;46115;44.484;11.314;2022-07-21T15:00:15;8.35;;;2.90;;
60257;SDS011;46115;44.484;11.314;2022-07-21T15:04:17;5.72;;;2.92;;
60257;SDS011;46115;44.484;11.314;2022-07-21T15:08:20;4.93;;;2.92;;
60257;SDS011;46115;44.484;11.314;2022-07-21T15:12:23;7.28;;;2.70;;
60257;SDS011;46115;44.484;11.314;2022-07-21T15:16:27;8.18;;;3.22;;
60257;SDS011;46115;44.484;11.314;2022-07-21T15:20:29;10.13;;;2.90;;
60257;SDS011;46115;44.484;11.314;2022-07-21T15:24:32;8.02;;;3.00;;
60257;SDS011;46115;44.484;11.314;2022-07-21T15:28:34;8.18;;;3.30;;
60257;SDS011;46115;44.484;11.314;2022-07-21T15:32:38;9.13;;;3.22;;
60257;SDS011;46115;44.484;11.314;2022-07-21T15:36:40;9.35;;;2.90;;
60257;SDS011;46115;44.484;11.314;2022-07-21T15:40:43;9.43;;;3.10;;
60257;SDS011;46115;44.484;11.314;2022-07-21T15:44:45;10.05;;;2.88;;
60257;SDS011;46115;44.484;11.314;2022-07-21T15:48:49;9.48;;;3.00;;
60257;SDS011;46115;44.484;11.314;2022-07-21T15:52:52;5.53;;;3.00;;
60257;SDS011;46115;44.484;11.314;2022-07-21T15:56:54;10.25;;;3.60;;
60257;SDS011;46115;44.484;11.314;2022-07-21T16:00:57;10.18;;;3.10;;
60257;SDS011;46115;44.484;11.314;2022-07-21T16:05:01;6.65;;;2.90;;
60257;SDS011;46115;44.484;11.314;2022-07-21T16:09:04;7.70;;;3.00;;
60257;SDS011;46115;44.484;11.314;2022-07-21T16:13:07;6.88;;;2.90;;
60257;SDS011;46115;44.484;11.314;2022-07-21T16:17:10;5.85;;;2.75;;
60257;SDS011;46115;44.484;11.314;2022-07-21T16:21:13;5.32;;;3.10;;
60257;SDS011;46115;44.484;11.314;2022-07-21T16:25:17;8.82;;;3.00;;
60257;SDS011;46115;44.484;11.314;2022-07-21T16:29:24;6.15;;;3.00;;
60257;SDS011;46115;44.484;11.314;2022-07-21T16:33:26;5.00;;;2.70;;
60257;SDS011;46115;44.484;11.314;2022-07-21T16:37:30;8.38;;;2.70;;
60257;SDS011;46115;44.484;11.314;2022-07-21T16:41:33;9.98;;;2.90;;
60257;SDS011;46115;44.484;11.314;2022-07-21T16:45:36;8.05;;;3.20;;
60257;SDS011;46115;44.484;11.314;2022-07-21T16:49:39;4.68;;;2.60;;
60257;SDS011;46115;44.484;11.314;2022-07-21T16:53:42;7.35;;;2.60;;
60257;SDS011;46115;44.484;11.314;2022-07-21T16:57:45;9.05;;;2.55;;
60257;SDS011;46115;44.484;11.314;2022-07-21T17:01:47;9.15;;;2.60;;
60257;SDS011;46115;44.484;11.314;2022-07-21T17:05:50;6.55;;;2.42;;
60257;SDS011;46115;44.484;11.314;2022-07-21T17:09:54;8.77;;;2.35;;
60257;SDS011;46115;44.484;11.314;2022-07-21T17:13:56;6.38;;;2.60;;
60257;SDS011;46115;44.484;11.314;2022-07-21T17:22:32;5.43;;;2.30;;
60257;SDS011;46115;44.484;11.314;2022-07-21T17:27:14;5.93;;;2.47;;
60257;SDS011;46115;44.484;11.314;2022-07-21T17:31:16;7.15;;;2.33;;
60257;SDS011;46115;44.484;11.314;2022-07-21T17:35:19;6.60;;;2.30;;
60257;SDS011;46115;44.484;11.314;2022-07-21T17:39:22;6.35;;;2.45;;
60257;SDS011;46115;44.484;11.314;2022-07-21T17:43:25;6.97;;;2.38;;
60257;SDS011;46115;44.484;11.314;2022-07-21T17:47:28;6.18;;;2.35;;
60257;SDS011;46115;44.484;11.314;2022-07-21T17:51:30;8.73;;;2.42;;
60257;SDS011;46115;44.484;11.314;2022-07-21T17:55:33;11.82;;;3.10;;
60257;SDS011;46115;44.484;11.314;2022-07-21T17:59:37;4.38;;;2.20;;
60257;SDS011;46115;44.484;11.314;2022-07-21T18:03:40;8.07;;;2.17;;
60257;SDS011;46115;44.484;11.314;2022-07-21T18:07:42;8.57;;;2.13;;
60257;SDS011;46115;44.484;11.314;2022-07-21T18:11:45;13.38;;;2.58;;
60257;SDS011;46115;44.484;11.314;2022-07-21T18:15:49;5.13;;;2.40;;
60257;SDS011;46115;44.484;11.314;2022-07-21T18:19:51;7.93;;;2.38;;
60257;SDS011;46115;44.484;11.314;2022-07-21T18:23:54;6.22;;;2.63;;
60257;SDS011;46115;44.484;11.314;2022-07-21T18:28:16;9.80;;;2.35;;
60257;SDS011;46115;44.484;11.314;2022-07-21T18:32:20;5.88;;;2.40;;
60257;SDS011;46115;44.484;11.314;2022-07-21T18:36:23;7.18;;;2.40;;
60257;SDS011;46115;44.484;11.314;2022-07-21T18:40:25;9.43;;;3.10;;
60257;SDS011;46115;44.484;11.314;2022-07-21T18:44:28;8.32;;;2.70;;
60257;SDS011;46115;44.484;11.314;2022-07-21T18:48:32;5.93;;;2.50;;
60257;SDS011;46115;44.484;11.314;2022-07-21T18:52:34;6.78;;;2.97;;
60257;SDS011;46115;44.484;11.314;2022-07-21T18:56:37;11.13;;;2.67;;
60257;SDS011;46115;44.484;11.314;2022-07-21T19:00:39;7.60;;;2.50;;
60257;SDS011;46115;44.484;11.314;2022-07-21T19:04:43;7.30;;;2.50;;
60257;SDS011;46115;44.484;11.314;2022-07-21T19:08:45;6.68;;;2.60;;
60257;SDS011;46115;44.484;11.314;2022-07-21T19:12:48;5.28;;;2.60;;
60257;SDS011;46115;44.484;11.314;2022-07-21T19:16:50;10.95;;;2.60;;
60257;SDS011;46115;44.484;11.314;2022-07-21T19:20:54;5.35;;;2.20;;
60257;SDS011;46115;44.484;11.314;2022-07-21T19:24:56;7.88;;;2.85;;
60257;SDS011;46115;44.484;11.314;2022-07-21T19:28:59;7.65;;;2.67;;
60257;SDS011;46115;44.484;11.314;2022-07-21T19:33:03;9.88;;;2.65;;
60257;SDS011;46115;44.484;11.314;2022-07-21T19:37:07;4.93;;;2.80;;
60257;SDS011;46115;44.484;11.314;2022-07-21T19:41:09;10.00;;;2.60;;
60257;SDS011;46115;44.484;11.314;2022-07-21T22:06:08;9.60;;;4.22;;
60257;SDS011;46115;44.484;11.314;2022-07-21T22:10:11;5.07;;;4.32;;
60257;SDS011;46115;44.484;11.314;2022-07-21T22:14:15;4.55;;;4.15;;
60257;SDS011;46115;44.484;11.314;2022-07-21T22:18:18;8.30;;;4.40;;
60257;SDS011;46115;44.484;11.314;2022-07-21T22:22:22;11.80;;;4.70;;
60257;SDS011;46115;44.484;11.314;2022-07-21T22:26:24;5.93;;;4.30;;
60257;SDS011;46115;44.484;11.314;2022-07-21T22:30:27;8.77;;;4.60;;
60257;SDS011;46115;44.484;11.314;2022-07-21T22:34:30;7.00;;;4.47;;
60257;SDS011;46115;44.484;11.314;2022-07-21T22:38:34;6.22;;;4.55;;
60257;SDS011;46115;44.484;11.314;2022-07-21T22:42:36;8.40;;;4.90;;
60257;SDS011;46115;44.484;11.314;2022-07-21T22:46:39;6.85;;;4.85;;
60257;SDS011;46115;44.484;11.314;2022-07-21T22:50:41;11.27;;;5.00;;
60257;SDS011;46115;44.484;11.314;2022-07-21T22:54:45;7.55;;;4.85;;
60257;SDS011;46115;44.484;11.314;2022-07-21T22:58:49;6.60;;;4.70;;
60257;SDS011;46115;44.484;11.314;2022-07-21T23:02:51;9.85;;;4.70;;
60257;SDS011;46115;44.484;11.314;2022-07-21T23:06:54;5.57;;;4.47;;
60257;SDS011;46115;44.484;11.314;2022-07-21T23:10:58;5.30;;;4.57;;
60257;SDS011;46115;44.484;11.314;2022-07-21T23:15:00;9.18;;;4.60;;
60257;SDS011;46115;44.484;11.314;2022-07-21T23:19:03;6.85;;;4.90;;
60257;SDS011;46115;44.484;11.314;2022-07-21T23:23:05;7.93;;;4.72;;
60257;SDS011;46115;44.484;11.314;2022-07-21T23:27:09;8.45;;;4.53;;
60257;SDS011;46115;44.484;11.314;2022-07-21T23:31:12;7.20;;;4.43;;
60257;SDS011;46115;44.484;11.314;2022-07-21T23:35:14;5.97;;;4.35;;
60257;SDS011;46115;44.484;11.314;2022-07-21T23:39:17;8.63;;;4.30;;
60257;SDS011;46115;44.484;11.314;2022-07-21T23:43:20;8.35;;;4.45;;
60257;SDS011;46115;44.484;11.314;2022-07-21T23:47:23;6.43;;;4.53;;
60257;SDS011;46115;44.484;11.314;2022-07-21T23:51:25;8.23;;;4.55;;
60257;SDS011;46115;44.484;11.314;2022-07-21T23:55:28;6.32;;;5.03;;
60257;SDS011;46115;44.484;11.314;2022-07-21T23:59:32;10.77;;;5.53;;
